Time;durP1;ratioP1;P1;durP2;ratioP2;P2;SDS_P1;SDS_P2;PMS_P1;PMS_P2;Temp;Humidity;BMP_temperature;BMP_pressure;BME280_temperature;BME280_humidity;BME280_pressure;Samples;Min_cycle;Max_cycle;Signal;HPM_P1;HPM_P2
2023/10/03 00:00:24;;;;;;;4.97;3.50;;;;;;;23.08;68.52;97767.88;4997394;28;20231;-25
2023/10/03 00:02:55;;;;;;;3.87;3.10;;;;;;;23.08;68.60;97770.44;5012366;28;20580;-25
2023/10/03 00:05:23;;;;;;;3.63;3.03;;;;;;;23.07;68.59;97763.59;5012736;28;20206;-25
2023/10/03 00:07:51;;;;;;;4.43;3.33;;;;;;;23.07;68.63;97761.88;5001287;28;20772;-25
2023/10/03 00:10:18;;;;;;;3.40;2.77;;;;;;;23.08;68.69;97757.63;5011918;28;20561;-25
2023/10/03 00:12:48;;;;;;;3.60;3.13;;;;;;;23.08;68.65;97757.63;5012097;28;20198;-25
2023/10/03 00:15:18;;;;;;;3.23;2.90;;;;;;;23.07;68.54;97759.31;5011563;28;20221;-26
2023/10/03 00:17:45;;;;;;;4.40;3.27;;;;;;;23.08;68.50;97758.50;5006808;28;20230;-28
2023/10/03 00:20:12;;;;;;;3.20;2.73;;;;;;;23.07;68.66;97756.75;5011931;28;20660;-25
2023/10/03 00:22:39;;;;;;;4.37;3.23;;;;;;;23.09;68.54;97759.34;4992967;28;20257;-25
2023/10/03 00:25:07;;;;;;;4.17;3.30;;;;;;;23.09;68.53;97754.22;5010969;28;20202;-25
2023/10/03 00:27:35;;;;;;;3.97;3.10;;;;;;;23.09;68.56;97756.78;5011870;28;20646;-25
2023/10/03 00:30:07;;;;;;;4.53;3.40;;;;;;;23.09;68.58;97749.09;5003143;28;20554;-26
2023/10/03 00:32:33;;;;;;;4.33;3.17;;;;;;;23.09;68.58;97756.78;5010588;28;20199;-25
2023/10/03 00:35:00;;;;;;;4.00;3.33;;;;;;;23.08;68.49;97752.50;5003760;28;20285;-25
2023/10/03 00:37:29;;;;;;;3.70;3.20;;;;;;;23.08;68.52;97749.94;5011899;28;20608;-25
2023/10/03 00:39:57;;;;;;;4.77;3.67;;;;;;;23.07;68.57;97749.03;5011763;28;20215;-25
2023/10/03 00:42:24;;;;;;;4.00;3.30;;;;;;;23.07;68.54;97741.34;5007751;28;20624;-25
2023/10/03 00:44:51;;;;;;;3.97;3.17;;;;;;;23.07;68.30;97748.19;5005540;28;20202;-25
2023/10/03 00:47:18;;;;;;;4.13;3.30;;;;;;;23.08;68.53;97744.78;5009980;28;20281;-25
2023/10/03 00:49:45;;;;;;;3.73;3.10;;;;;;;23.08;68.72;97745.69;4999979;28;20195;-25
2023/10/03 00:52:12;;;;;;;4.33;3.20;;;;;;;23.07;68.83;97745.63;5005493;28;20673;-25
2023/10/03 00:54:40;;;;;;;4.93;3.30;;;;;;;23.08;68.63;97747.34;4997637;28;20203;-25
2023/10/03 00:57:08;;;;;;;3.83;2.90;;;;;;;23.09;68.80;97743.97;5003385;28;20812;-26
2023/10/03 00:59:35;;;;;;;4.63;3.50;;;;;;;22.48;68.67;97633.81;5008416;28;20223;-25
2023/10/03 01:02:06;;;;;;;4.47;3.47;;;;;;;23.08;68.49;97732.84;4992552;28;20600;-25
2023/10/03 01:04:34;;;;;;;4.33;3.23;;;;;;;23.09;68.76;97732.03;4997443;28;20209;-25
2023/10/03 01:07:02;;;;;;;3.83;3.20;;;;;;;23.09;68.64;97726.00;5003204;28;20249;-25
2023/10/03 01:09:31;;;;;;;4.27;3.43;;;;;;;23.09;68.61;97724.31;5003278;28;20597;-25
2023/10/03 01:11:58;;;;;;;3.97;3.30;;;;;;;23.08;68.57;97725.16;4997776;28;20202;-25
2023/10/03 01:14:26;;;;;;;4.50;3.30;;;;;;;23.08;68.48;97726.84;5010528;28;20198;-25
2023/10/03 01:16:53;;;;;;;3.87;3.27;;;;;;;23.08;68.82;97717.47;4997844;28;20207;-26
2023/10/03 01:19:24;;;;;;;4.47;3.27;;;;;;;23.08;68.61;97720.03;5010929;28;20655;-25
2023/10/03 01:21:51;;;;;;;4.30;3.43;;;;;;;23.05;68.59;97711.38;5007288;28;20198;-25
2023/10/03 01:24:21;;;;;;;3.60;3.10;;;;;;;23.07;68.63;97708.03;5010090;28;20603;-25
2023/10/03 01:26:48;;;;;;;5.23;3.63;;;;;;;23.08;68.53;97711.47;5005842;28;20194;-25
2023/10/03 01:29:15;;;;;;;3.80;3.37;;;;;;;23.08;68.68;97714.03;5010136;28;20272;-25
2023/10/03 01:31:42;;;;;;;3.73;3.27;;;;;;;23.08;68.76;97706.34;4996336;28;20198;-25
2023/10/03 01:34:09;;;;;;;3.57;3.17;;;;;;;23.08;68.70;97696.97;5007507;28;20203;-25
2023/10/03 01:36:36;;;;;;;4.50;3.50;;;;;;;23.09;68.52;97703.81;5011527;28;20260;-25
2023/10/03 01:39:03;;;;;;;3.57;2.90;;;;;;;23.08;68.85;97702.09;5003034;28;20249;-25
2023/10/03 01:41:30;;;;;;;4.23;3.27;;;;;;;23.09;68.50;97695.25;5010438;28;20285;-25
2023/10/03 01:43:57;;;;;;;4.50;3.47;;;;;;;23.10;68.66;97704.69;5011247;28;20668;-25
2023/10/03 01:46:26;;;;;;;5.37;3.47;;;;;;;23.09;68.61;97697.81;5011864;28;20575;-25
2023/10/03 01:48:53;;;;;;;4.80;3.83;;;;;;;23.08;68.66;97693.53;5015057;28;20280;-25
2023/10/03 01:51:21;;;;;;;3.80;3.40;;;;;;;23.08;68.62;97688.41;5006560;28;20658;-25
2023/10/03 01:53:47;;;;;;;3.83;3.07;;;;;;;23.08;68.63;97688.41;5007581;28;20293;-25
2023/10/03 01:56:14;;;;;;;3.73;3.30;;;;;;;23.07;68.67;97689.25;5014930;28;20203;-25
2023/10/03 01:58:41;;;;;;;4.57;3.60;;;;;;;23.07;68.57;97691.81;5003782;28;20701;-25
2023/10/03 02:01:07;;;;;;;4.17;3.47;;;;;;;23.07;68.69;97694.38;4999226;28;20237;-25
2023/10/03 02:03:34;;;;;;;4.27;3.50;;;;;;;23.06;68.71;97690.91;5012775;28;20202;-25
2023/10/03 02:06:06;;;;;;;3.73;3.33;;;;;;;23.06;68.76;97690.91;5014772;28;20198;-25
2023/10/03 02:08:33;;;;;;;3.70;2.97;;;;;;;23.07;68.69;97687.53;5011153;28;20218;-25
2023/10/03 02:10:59;;;;;;;4.17;3.30;;;;;;;23.08;68.52;97685.84;5007888;28;20596;-25
2023/10/03 02:13:27;;;;;;;4.43;3.47;;;;;;;23.08;68.68;97693.53;5014677;28;20199;-25
2023/10/03 02:15:54;;;;;;;3.93;3.20;;;;;;;23.08;68.74;97688.41;5014648;28;20572;-26
2023/10/03 02:18:21;;;;;;;4.03;3.03;;;;;;;23.08;68.82;97686.72;5006457;28;20310;-25
2023/10/03 02:20:51;;;;;;;4.40;3.23;;;;;;;23.08;68.90;97686.72;5000560;28;20199;-25
2023/10/03 02:23:23;;;;;;;3.60;3.20;;;;;;;23.08;68.65;97679.03;5008767;28;20202;-25
2023/10/03 02:25:54;;;;;;;4.10;3.20;;;;;;;23.08;68.71;97670.44;5002840;28;20658;-25
2023/10/03 02:28:20;;;;;;;4.77;3.80;;;;;;;23.08;68.66;97668.75;5010922;28;20642;-25
2023/10/03 02:30:50;;;;;;;4.37;3.30;;;;;;;23.08;68.77;97667.88;5002960;28;20199;-25
2023/10/03 02:33:18;;;;;;;3.77;3.17;;;;;;;23.08;68.65;97661.06;5001274;28;20207;-25
2023/10/03 02:35:46;;;;;;;4.03;3.30;;;;;;;23.07;68.50;97669.56;5005789;28;20252;-25
2023/10/03 02:38:29;;;;;;;4.63;3.63;;;;;;;23.08;68.73;97657.63;5011832;28;20222;-25
2023/10/03 02:40:59;;;;;;;3.87;3.47;;;;;;;23.07;68.64;97656.75;5007410;28;20198;-25
2023/10/03 02:43:27;;;;;;;5.17;3.27;;;;;;;23.07;68.77;97648.22;5003202;28;20233;-25
2023/10/03 02:45:54;;;;;;;4.03;3.30;;;;;;;23.08;68.86;97649.94;5014373;28;20198;-25
2023/10/03 02:48:21;;;;;;;4.23;3.33;;;;;;;23.08;68.77;97642.25;5003570;28;20235;-25
2023/10/03 02:50:50;;;;;;;4.03;3.40;;;;;;;23.07;68.66;97643.94;5010486;28;20227;-25
2023/10/03 02:53:20;;;;;;;3.27;2.93;;;;;;;23.08;68.56;97647.38;5009958;28;20293;-25
2023/10/03 02:55:48;;;;;;;4.10;3.50;;;;;;;23.08;68.56;97638.00;5010266;28;20290;-25
2023/10/03 02:58:16;;;;;;;4.33;3.00;;;;;;;23.08;68.60;97632.00;5008920;28;20226;-25
2023/10/03 03:00:46;;;;;;;3.70;3.30;;;;;;;23.09;68.65;97641.41;5013393;28;20289;-25
2023/10/03 03:03:14;;;;;;;5.43;3.60;;;;;;;23.08;68.80;97637.13;5007335;28;20211;-25
2023/10/03 03:05:43;;;;;;;4.23;3.33;;;;;;;23.09;68.69;97633.72;5000534;28;20203;-25
2023/10/03 03:10:55;;;;;;;4.47;3.50;;;;;;;23.08;68.64;97624.31;5002396;28;20241;-25
2023/10/03 03:13:29;;;;;;;4.97;3.73;;;;;;;23.07;68.80;97625.16;5003794;28;20194;-25
2023/10/03 03:16:05;;;;;;;4.77;3.60;;;;;;;23.04;68.70;97623.34;5006220;28;20580;-25
2023/10/03 03:18:42;;;;;;;4.70;3.23;;;;;;;23.07;68.71;97627.72;5005129;28;20938;-25
2023/10/03 03:21:14;;;;;;;4.80;3.20;;;;;;;23.06;68.64;97629.41;5007585;28;20694;-25
2023/10/03 03:23:43;;;;;;;5.23;3.20;;;;;;;23.07;68.83;97632.84;5010662;28;20202;-25
2023/10/03 03:26:20;;;;;;;4.07;3.30;;;;;;;23.06;68.73;97629.41;5007948;28;20209;-25
2023/10/03 03:28:50;;;;;;;3.90;3.37;;;;;;;23.07;68.61;97627.72;5013087;28;20214;-25
2023/10/03 03:31:25;;;;;;;4.57;3.67;;;;;;;23.06;68.66;97626.84;5003445;28;20206;-25
2023/10/03 03:33:56;;;;;;;5.07;3.80;;;;;;;23.07;68.53;97618.31;5005515;28;20289;-25
2023/10/03 03:36:29;;;;;;;5.10;3.50;;;;;;;23.08;68.80;97624.31;5005749;28;20203;-25
2023/10/03 03:38:58;;;;;;;5.93;3.80;;;;;;;23.08;68.63;97625.19;5000830;28;20255;-25
2023/10/03 03:41:25;;;;;;;3.90;3.00;;;;;;;23.08;68.83;97626.88;4996973;28;20670;-25
2023/10/03 03:43:52;;;;;;;5.43;4.07;;;;;;;23.08;68.73;97619.19;5009919;28;20237;-25
2023/10/03 03:46:19;;;;;;;5.00;3.67;;;;;;;23.07;68.69;97620.88;5007894;28;20238;-25
2023/10/03 03:48:46;;;;;;;4.20;3.30;;;;;;;23.07;68.72;97620.88;5000812;28;20313;-25
2023/10/03 03:51:14;;;;;;;4.47;3.40;;;;;;;23.06;68.73;97615.69;5013188;28;20202;-25
2023/10/03 03:53:43;;;;;;;4.30;3.47;;;;;;;23.07;68.49;97620.03;5008817;28;20209;-25
2023/10/03 03:56:12;;;;;;;5.67;4.17;;;;;;;23.07;68.59;97617.47;4994459;28;20636;-25
2023/10/03 03:58:45;;;;;;;5.37;3.47;;;;;;;23.06;68.73;97616.56;5002163;28;20226;-26
2023/10/03 04:01:23;;;;;;;4.27;3.53;;;;;;;23.07;68.72;97617.47;4998834;28;20286;-25
2023/10/03 04:03:50;;;;;;;5.57;3.93;;;;;;;23.07;68.78;97618.31;5001941;28;20654;-25
2023/10/03 04:06:20;;;;;;;3.93;3.20;;;;;;;23.07;68.77;97615.75;5004344;28;20286;-25
2023/10/03 04:08:48;;;;;;;3.80;3.17;;;;;;;23.04;69.00;97607.13;5011655;28;20221;-25
2023/10/03 04:11:34;;;;;;;4.13;3.43;;;;;;;23.07;68.74;97610.59;5011189;28;20230;-25
2023/10/03 04:14:04;;;;;;;4.67;3.60;;;;;;;23.08;68.61;97621.75;5005138;28;20202;-25
2023/10/03 04:16:38;;;;;;;3.93;3.40;;;;;;;23.08;68.56;97624.31;5011932;28;20668;-25
2023/10/03 04:19:05;;;;;;;4.83;3.73;;;;;;;23.07;68.77;97628.56;5001574;28;20685;-25
2023/10/03 04:21:33;;;;;;;4.33;3.37;;;;;;;23.07;68.65;97613.19;5006016;28;20557;-25
2023/10/03 04:23:59;;;;;;;3.80;3.27;;;;;;;23.07;68.62;97623.44;5000238;28;20202;-25
2023/10/03 04:26:27;;;;;;;4.33;3.63;;;;;;;23.07;68.31;97623.44;5012263;28;20198;-25
2023/10/03 04:28:54;;;;;;;4.87;3.80;;;;;;;23.07;68.53;97617.47;5006705;28;20226;-25
2023/10/03 04:31:21;;;;;;;4.13;3.57;;;;;;;23.07;68.62;97617.47;5003217;28;20596;-25
2023/10/03 04:33:48;;;;;;;4.43;3.60;;;;;;;23.07;68.63;97614.91;5010679;28;20194;-25
2023/10/03 04:36:15;;;;;;;5.67;3.83;;;;;;;23.07;68.96;97617.47;5012113;28;20276;-25
2023/10/03 04:38:42;;;;;;;3.93;3.40;;;;;;;23.07;68.70;97617.47;5010494;28;20222;-25
2023/10/03 04:41:09;;;;;;;3.90;3.40;;;;;;;23.06;69.03;97608.88;5003334;28;20203;-26
2023/10/03 04:43:36;;;;;;;4.23;3.23;;;;;;;23.06;68.74;97614.00;4999971;28;20210;-25
2023/10/03 04:46:04;;;;;;;3.67;3.13;;;;;;;23.08;68.81;97614.06;5006875;28;20212;-25
2023/10/03 04:48:31;;;;;;;4.23;3.40;;;;;;;23.07;68.62;97607.19;5005563;28;20237;-25
2023/10/03 04:50:59;;;;;;;4.47;3.57;;;;;;;23.08;68.64;97611.50;5010065;23;20214;-26
2023/10/03 04:53:26;;;;;;;3.73;3.20;;;;;;;23.07;68.14;97608.03;5000734;28;20232;-28
2023/10/03 04:55:53;;;;;;;4.03;3.57;;;;;;;23.08;68.45;97611.50;5001707;28;20203;-26
2023/10/03 04:58:21;;;;;;;4.17;3.47;;;;;;;23.08;68.14;97608.94;5006619;28;20206;-26
2023/10/03 05:00:49;;;;;;;4.40;3.70;;;;;;;23.08;68.66;97614.06;5010012;28;20234;-26
2023/10/03 05:03:19;;;;;;;4.57;3.20;;;;;;;23.07;68.63;97609.78;5011947;28;20237;-26
2023/10/03 05:05:48;;;;;;;3.87;3.20;;;;;;;23.06;68.53;97614.00;5011937;28;20209;-26
2023/10/03 05:08:18;;;;;;;4.53;3.57;;;;;;;23.07;68.56;97620.03;5008116;28;20238;-26
2023/10/03 05:10:47;;;;;;;4.73;3.40;;;;;;;23.07;68.42;97617.47;5011396;28;20276;-26
2023/10/03 05:13:14;;;;;;;3.83;3.40;;;;;;;23.07;68.55;97622.59;5012333;28;20206;-26
2023/10/03 05:15:40;;;;;;;4.67;3.47;;;;;;;23.05;68.64;97619.97;5011930;28;20864;-26
2023/10/03 05:18:07;;;;;;;3.50;3.17;;;;;;;23.07;68.74;97614.91;5012210;28;20245;-27
2023/10/03 05:20:42;;;;;;;4.57;3.67;;;;;;;23.07;68.69;97620.03;5014846;28;20317;-26
2023/10/03 05:23:08;;;;;;;4.63;3.53;;;;;;;23.07;68.79;97615.75;5010689;28;20205;-27
2023/10/03 05:25:42;;;;;;;3.67;3.10;;;;;;;23.07;68.64;97613.19;5016301;28;20206;-28
2023/10/03 05:28:11;;;;;;;3.73;3.30;;;;;;;23.07;68.54;97618.31;5009992;28;20210;-27
2023/10/03 05:30:41;;;;;;;4.43;3.70;;;;;;;23.08;68.56;97614.06;5012377;28;20254;-27
2023/10/03 05:33:07;;;;;;;3.57;3.13;;;;;;;23.08;68.63;97614.06;5008752;28;20233;-32
2023/10/03 05:35:35;;;;;;;4.53;3.77;;;;;;;23.09;68.56;97631.16;5015578;28;20238;-26
2023/10/03 05:38:08;;;;;;;3.87;3.40;;;;;;;23.08;68.73;97637.13;5015820;28;20206;-26
2023/10/03 05:40:36;;;;;;;4.37;3.37;;;;;;;23.08;68.53;97621.75;5015466;28;20280;-29
2023/10/03 05:43:03;;;;;;;4.27;3.47;;;;;;;23.07;68.81;97620.88;5014195;28;20294;-26
2023/10/03 05:45:34;;;;;;;4.80;3.60;;;;;;;23.07;68.56;97620.03;5015541;28;20576;-26
2023/10/03 05:48:04;;;;;;;4.27;3.50;;;;;;;23.07;68.64;97627.72;5010634;28;20206;-26
2023/10/03 05:50:32;;;;;;;5.30;3.90;;;;;;;23.05;68.31;97619.97;5015639;28;20225;-26
2023/10/03 05:53:00;;;;;;;3.77;3.30;;;;;;;23.05;68.75;97617.41;5015729;28;20285;-26
2023/10/03 05:55:27;;;;;;;4.33;3.47;;;;;;;23.06;68.63;97610.56;5015716;28;20552;-26
2023/10/03 05:57:54;;;;;;;4.27;3.30;;;;;;;23.07;68.69;97613.19;5012349;28;20268;-26
2023/10/03 06:00:21;;;;;;;3.83;3.13;;;;;;;23.06;68.50;97624.28;5015446;28;20309;-26
2023/10/03 06:02:48;;;;;;;3.93;3.43;;;;;;;23.07;68.73;97625.16;5014551;28;20206;-27
2023/10/03 06:05:16;;;;;;;4.30;3.23;;;;;;;23.08;68.60;97621.75;5015231;28;20206;-29
2023/10/03 06:07:43;;;;;;;4.30;3.40;;;;;;;23.07;68.49;97609.78;5015571;28;20206;-26
2023/10/03 06:10:16;;;;;;;4.33;3.67;;;;;;;23.07;68.43;97620.88;5014902;28;20229;-26
2023/10/03 06:12:44;;;;;;;4.03;3.20;;;;;;;22.99;68.59;97613.81;5007619;28;20265;-26
2023/10/03 06:15:12;;;;;;;3.60;3.13;;;;;;;23.08;68.53;97629.44;5014157;28;20289;-26
2023/10/03 06:17:40;;;;;;;4.07;3.37;;;;;;;23.08;68.38;97630.31;5015203;28;20338;-26
2023/10/03 06:20:09;;;;;;;4.47;3.20;;;;;;;23.07;68.47;97623.44;5015184;28;20222;-26
2023/10/03 06:22:36;;;;;;;3.80;3.43;;;;;;;23.07;68.23;97625.16;5015254;28;20268;-27
2023/10/03 06:25:04;;;;;;;3.97;3.43;;;;;;;23.06;68.29;97629.41;5014640;28;20225;-29
2023/10/03 06:27:31;;;;;;;4.00;3.50;;;;;;;23.06;68.50;97637.09;5014971;28;20236;-26
2023/10/03 06:29:58;;;;;;;3.80;3.17;;;;;;;23.06;68.37;97629.41;5014572;28;20226;-27
2023/10/03 06:32:24;;;;;;;3.93;3.33;;;;;;;23.07;68.57;97635.41;5014263;28;20738;-26
2023/10/03 06:34:51;;;;;;;3.33;3.00;;;;;;;23.07;68.50;97628.56;5014942;28;20210;-26
2023/10/03 06:37:18;;;;;;;3.93;3.10;;;;;;;23.07;68.44;97626.00;5014514;28;20210;-26
2023/10/03 06:39:44;;;;;;;3.83;3.07;;;;;;;23.07;68.46;97630.28;5014550;28;20609;-38
2023/10/03 06:42:11;;;;;;;4.30;3.60;;;;;;;23.07;68.49;97627.72;5014364;28;20206;-26
2023/10/03 06:44:40;;;;;;;4.03;3.47;;;;;;;23.07;68.55;97631.13;5009527;28;20249;-26
2023/10/03 06:47:08;;;;;;;3.37;3.07;;;;;;;23.08;68.56;97639.69;5013407;28;20218;-27
2023/10/03 06:49:35;;;;;;;4.07;3.37;;;;;;;22.99;68.94;97622.41;5014344;28;20214;-26
2023/10/03 06:52:03;;;;;;;3.70;3.27;;;;;;;23.08;68.57;97637.13;5009241;28;20628;-26
2023/10/03 06:54:30;;;;;;;3.50;3.20;;;;;;;23.07;68.40;97638.81;5014625;28;20274;-26
2023/10/03 06:56:56;;;;;;;4.07;3.27;;;;;;;23.08;68.48;97637.13;5013942;28;20202;-26
2023/10/03 06:59:23;;;;;;;4.67;3.70;;;;;;;23.07;68.50;97643.09;5014395;28;20264;-28
2023/10/03 07:01:50;;;;;;;4.23;3.53;;;;;;;23.07;68.39;97635.41;5014375;28;20206;-29
2023/10/03 07:04:17;;;;;;;4.97;4.07;;;;;;;23.06;68.72;97642.22;5013926;28;20204;-26
2023/10/03 07:06:45;;;;;;;4.03;3.40;;;;;;;23.06;68.66;97641.34;5014426;28;20257;-26
2023/10/03 07:09:14;;;;;;;3.40;3.10;;;;;;;23.06;68.49;97643.91;5014140;28;20244;-26
2023/10/03 07:11:41;;;;;;;4.33;3.50;;;;;;;23.06;68.50;97638.78;5013919;28;20316;-26
2023/10/03 07:14:16;;;;;;;4.17;3.67;;;;;;;23.06;68.74;97637.09;5013995;28;20206;-26
2023/10/03 07:16:46;;;;;;;3.60;3.10;;;;;;;23.06;68.59;97628.53;5014293;28;20206;-31
2023/10/03 07:19:16;;;;;;;3.97;3.37;;;;;;;23.05;68.70;97637.94;5014129;28;20209;-26
2023/10/03 07:21:43;;;;;;;3.50;3.10;;;;;;;22.96;68.66;97621.44;5014021;28;20280;-26
2023/10/03 07:24:09;;;;;;;4.37;3.50;;;;;;;23.05;68.47;97632.81;5013657;28;20210;-26
2023/10/03 07:26:36;;;;;;;3.63;3.23;;;;;;;23.06;68.27;97625.94;5013545;28;20234;-31
2023/10/03 07:29:04;;;;;;;3.87;3.40;;;;;;;23.06;68.48;97625.94;5013604;28;20249;-26
2023/10/03 07:31:34;;;;;;;4.40;3.60;;;;;;;23.05;68.66;97625.13;5014073;28;20303;-26
2023/10/03 07:34:01;;;;;;;4.30;3.50;;;;;;;23.04;68.80;97635.31;5010339;28;20572;-26
2023/10/03 07:36:28;;;;;;;4.43;3.53;;;;;;;23.00;68.58;97631.81;5013335;28;20203;-26
2023/10/03 07:38:54;;;;;;;5.03;3.23;;;;;;;23.04;68.61;97648.16;5012234;28;20329;-29
2023/10/03 07:41:21;;;;;;;3.57;3.17;;;;;;;23.04;68.74;97646.41;5013344;28;20226;-27
2023/10/03 07:43:49;;;;;;;3.77;3.30;;;;;;;23.04;68.88;97643.88;5012576;28;20210;-30
2023/10/03 07:46:22;;;;;;;3.53;3.03;;;;;;;23.03;68.60;97644.69;5011565;28;20684;-27
2023/10/03 07:48:52;;;;;;;3.70;3.17;;;;;;;23.03;68.70;97634.44;5009683;28;20202;-26
2023/10/03 07:51:19;;;;;;;3.83;3.37;;;;;;;23.04;68.71;97640.44;5012855;28;20218;-26
2023/10/03 07:53:47;;;;;;;3.87;3.47;;;;;;;23.04;68.69;97645.56;5013354;28;20252;-26
2023/10/03 07:56:30;;;;;;;4.00;3.00;;;;;;;23.04;68.75;97648.16;5010803;28;20285;-29
2023/10/03 07:59:01;;;;;;;3.30;2.93;;;;;;;23.05;68.76;97642.19;5010350;28;20613;-26
2023/10/03 08:01:29;;;;;;;3.73;3.33;;;;;;;23.05;68.73;97650.75;5013072;28;20313;-26
2023/10/03 08:03:57;;;;;;;4.33;3.50;;;;;;;23.05;68.57;97647.31;5012798;28;20202;-26
2023/10/03 08:06:33;;;;;;;3.80;3.10;;;;;;;23.04;68.74;97651.56;5013017;28;20677;-28
2023/10/03 08:09:08;;;;;;;3.23;2.93;;;;;;;23.05;68.78;97643.06;5012786;28;20205;-26
2023/10/03 08:11:36;;;;;;;3.80;3.23;;;;;;;23.05;69.09;97644.75;5013206;28;20214;-26
2023/10/03 08:14:13;;;;;;;3.87;3.20;;;;;;;23.04;68.53;97646.41;5013203;28;20202;-27
2023/10/03 08:16:40;;;;;;;4.30;3.50;;;;;;;23.05;68.66;97655.00;5012755;28;20198;-26
2023/10/03 08:19:10;;;;;;;3.83;3.33;;;;;;;23.03;68.68;97642.13;5012881;28;20209;-26
2023/10/03 08:21:43;;;;;;;3.60;3.23;;;;;;;23.05;68.59;97660.13;5012483;28;20288;-26
2023/10/03 08:24:10;;;;;;;3.50;3.07;;;;;;;23.05;68.72;97652.44;5012347;28;20285;-26
2023/10/03 08:26:37;;;;;;;4.03;3.40;;;;;;;23.05;69.05;97660.13;5012940;28;20561;-26
2023/10/03 08:29:04;;;;;;;3.63;3.30;;;;;;;23.04;68.72;97654.13;5012845;28;20264;-26
2023/10/03 08:31:32;;;;;;;4.10;3.43;;;;;;;23.05;68.92;97644.75;5012500;28;20304;-26
2023/10/03 08:33:58;;;;;;;3.27;2.87;;;;;;;23.04;68.69;97640.44;5012465;28;20203;-26
2023/10/03 08:36:30;;;;;;;3.83;3.40;;;;;;;23.05;68.76;97647.31;5004885;28;20200;-28
2023/10/03 08:39:12;;;;;;;3.57;3.17;;;;;;;23.04;68.82;97643.00;5009330;28;20230;-26
2023/10/03 08:42:12;;;;;;;3.50;3.20;;;;;;;23.05;68.72;97643.06;5006231;28;20312;-26
2023/10/03 08:44:54;;;;;;;3.50;3.20;;;;;;;23.04;68.74;97641.28;5005754;28;20201;-26
2023/10/03 08:47:34;;;;;;;3.67;3.33;;;;;;;23.05;68.66;97644.75;5011375;28;20584;-28
2023/10/03 08:50:10;;;;;;;3.73;3.20;;;;;;;23.06;68.76;97647.34;4994843;28;20314;-26
2023/10/03 08:52:48;;;;;;;3.40;3.10;;;;;;;23.05;68.64;97648.19;5012319;28;20198;-27
2023/10/03 08:55:19;;;;;;;3.60;3.03;;;;;;;23.03;68.71;97652.38;5010883;28;20202;-26
2023/10/03 08:57:48;;;;;;;4.63;3.73;;;;;;;23.04;68.73;97655.84;5012389;28;20244;-28
2023/10/03 09:00:16;;;;;;;3.20;2.90;;;;;;;23.02;68.47;97650.66;5012408;28;20316;-26
2023/10/03 09:02:45;;;;;;;3.30;2.90;;;;;;;23.03;68.74;97654.94;5011833;28;20202;-27
2023/10/03 09:05:20;;;;;;;3.70;3.17;;;;;;;23.04;68.84;97649.00;5008082;28;20676;-28
2023/10/03 09:07:47;;;;;;;3.20;2.90;;;;;;;23.05;68.80;97655.00;5012565;28;20202;-33
2023/10/03 09:10:23;;;;;;;4.10;3.57;;;;;;;23.03;68.76;97647.25;5012313;28;20257;-26
2023/10/03 09:12:51;;;;;;;3.50;3.00;;;;;;;23.05;68.72;97649.88;5010927;28;20222;-29
2023/10/03 09:15:18;;;;;;;3.17;2.43;;;;;;;23.06;68.72;97643.91;5010920;28;20205;-26
2023/10/03 09:17:49;;;;;;;3.33;3.00;;;;;;;23.06;68.82;97644.78;5011173;28;20202;-28
2023/10/03 09:20:20;;;;;;;3.43;3.03;;;;;;;23.06;68.78;97642.22;5012146;28;20232;-26
2023/10/03 09:22:47;;;;;;;3.50;3.00;;;;;;;23.07;68.79;97650.78;5012005;28;20198;-30
2023/10/03 09:25:16;;;;;;;3.50;2.97;;;;;;;23.06;68.65;97643.91;5011787;28;20644;-28
2023/10/03 09:27:44;;;;;;;3.40;3.00;;;;;;;23.06;68.73;97636.22;5012101;28;20199;-26
2023/10/03 09:30:22;;;;;;;3.27;2.90;;;;;;;23.03;68.53;97629.31;5010965;28;20233;-27
2023/10/03 09:32:50;;;;;;;3.20;2.90;;;;;;;23.06;68.67;97624.28;5012136;28;20293;-28
2023/10/03 09:35:17;;;;;;;3.37;3.00;;;;;;;23.06;68.76;97626.84;5011827;28;20285;-26
2023/10/03 09:37:48;;;;;;;3.30;3.00;;;;;;;23.06;68.82;97626.84;5007129;28;20206;-27
2023/10/03 09:40:18;;;;;;;4.37;3.10;;;;;;;23.06;68.72;97623.38;5012178;28;20226;-26
2023/10/03 09:42:48;;;;;;;3.17;2.87;;;;;;;23.04;68.65;97607.13;5010779;28;20297;-26
2023/10/03 09:45:24;;;;;;;3.27;2.93;;;;;;;23.06;68.70;97605.44;5010387;28;20256;-26
2023/10/03 09:47:58;;;;;;;3.20;2.90;;;;;;;23.06;68.60;97613.13;5005787;28;20264;-26
2023/10/03 09:50:26;;;;;;;3.30;2.70;;;;;;;23.06;68.55;97611.44;5011461;28;20234;-26
2023/10/03 09:52:53;;;;;;;3.80;3.13;;;;;;;23.02;68.55;97596.84;5012176;28;20206;-26
2023/10/03 09:55:26;;;;;;;3.90;3.43;;;;;;;23.07;68.59;97612.34;5010702;28;20203;-27
2023/10/03 09:57:54;;;;;;;3.60;3.00;;;;;;;23.06;68.73;97608.00;5005613;28;20214;-26
2023/10/03 10:00:49;;;;;;;3.53;2.97;;;;;;;23.06;68.60;97608.00;4994362;28;20595;-26
2023/10/03 10:03:26;;;;;;;3.40;2.83;;;;;;;23.06;68.60;97606.31;4996954;28;20210;-26
2023/10/03 10:06:17;;;;;;;2.97;2.57;;;;;;;23.06;68.67;97608.00;4992511;28;20194;-29
2023/10/03 10:08:58;;;;;;;3.20;2.87;;;;;;;23.05;68.55;97601.16;5008444;28;20571;-26
2023/10/03 10:11:30;;;;;;;3.50;3.17;;;;;;;23.05;68.72;97602.03;5014171;28;20568;-31
2023/10/03 10:14:09;;;;;;;2.70;2.50;;;;;;;23.05;68.49;97601.16;5015226;28;20248;-27
2023/10/03 10:17:04;;;;;;;3.13;2.70;;;;;;;23.04;68.77;97596.88;5015148;28;20229;-26
2023/10/03 10:20:09;;;;;;;3.40;3.00;;;;;;;23.05;68.84;97604.59;5014929;28;20665;-26
2023/10/03 10:23:02;;;;;;;3.13;2.83;;;;;;;23.05;68.74;97594.34;5005882;28;20661;-26
2023/10/03 10:25:37;;;;;;;3.57;3.00;;;;;;;23.04;68.68;97591.75;5008076;28;20257;-26
2023/10/03 10:28:05;;;;;;;3.10;2.73;;;;;;;23.04;68.68;97592.59;5015380;28;20210;-26
2023/10/03 10:30:35;;;;;;;3.40;2.90;;;;;;;23.05;68.73;97589.22;5015009;28;20217;-27
2023/10/03 10:33:27;;;;;;;2.90;2.60;;;;;;;23.05;68.76;97581.53;5014818;28;20682;-29
2023/10/03 10:35:55;;;;;;;2.50;2.30;;;;;;;23.05;68.66;97578.09;5009164;28;20294;-26
2023/10/03 10:38:31;;;;;;;3.00;2.70;;;;;;;23.06;68.71;97575.56;5013427;28;20735;-27
2023/10/03 10:41:25;;;;;;;3.10;2.77;;;;;;;23.06;68.70;97567.88;5009492;28;20225;-27
2023/10/03 10:44:08;;;;;;;2.87;2.57;;;;;;;23.06;68.62;97560.19;5011991;28;20209;-28
2023/10/03 10:46:35;;;;;;;3.40;2.87;;;;;;;23.05;68.76;97558.47;5013499;28;20203;-26
2023/10/03 10:49:06;;;;;;;2.80;2.50;;;;;;;23.05;68.75;97553.34;5014540;28;20198;-26
2023/10/03 10:51:34;;;;;;;3.80;2.90;;;;;;;23.06;68.62;97551.63;5006475;28;20234;-26
2023/10/03 10:54:04;;;;;;;2.83;2.60;;;;;;;23.05;68.67;97540.53;5014421;28;20202;-26
2023/10/03 10:56:32;;;;;;;3.40;2.83;;;;;;;23.05;68.64;97534.50;5012706;28;20209;-27
2023/10/03 10:59:04;;;;;;;2.77;2.57;;;;;;;23.05;68.78;97535.38;5014388;28;20202;-27
2023/10/03 11:01:37;;;;;;;3.10;2.80;;;;;;;23.05;68.75;97531.94;5014336;28;20230;-26
2023/10/03 11:04:05;;;;;;;3.63;2.70;;;;;;;23.06;68.72;97520.84;5014241;28;20206;-26
2023/10/03 11:06:32;;;;;;;3.00;2.60;;;;;;;23.05;69.02;97521.69;5013066;28;20260;-26
2023/10/03 11:08:58;;;;;;;2.73;2.33;;;;;;;23.05;68.21;97521.69;5014335;28;20673;-26
2023/10/03 11:11:39;;;;;;;2.90;2.50;;;;;;;23.06;68.63;97513.16;5012503;28;20726;-26
2023/10/03 11:14:06;;;;;;;3.20;2.90;;;;;;;23.06;68.72;97515.72;5014025;28;20210;-26
2023/10/03 11:16:33;;;;;;;3.60;2.70;;;;;;;23.06;68.60;97514.03;5013472;28;20264;-27
2023/10/03 11:19:02;;;;;;;2.50;2.30;;;;;;;23.08;68.61;97514.06;4996173;28;20221;-27
2023/10/03 11:21:30;;;;;;;3.00;2.70;;;;;;;23.06;68.62;97508.91;5012833;28;20226;-26
2023/10/03 11:24:25;;;;;;;2.97;2.40;;;;;;;23.07;68.64;97496.97;5012944;28;20211;-26
2023/10/03 11:26:53;;;;;;;2.73;2.53;;;;;;;23.06;68.63;97493.53;5014073;28;20199;-26
2023/10/03 11:29:41;;;;;;;2.70;2.37;;;;;;;23.06;68.56;97483.28;5006300;28;20583;-26
2023/10/03 11:32:32;;;;;;;2.87;2.27;;;;;;;23.06;68.78;97495.22;5011726;28;20472;-26
2023/10/03 11:35:13;;;;;;;3.23;2.50;;;;;;;23.05;68.81;97480.69;5007819;28;20230;-32
2023/10/03 11:37:43;;;;;;;2.83;2.50;;;;;;;23.05;68.75;97473.00;5012239;28;20276;-27
2023/10/03 11:40:23;;;;;;;2.93;2.60;;;;;;;23.05;68.73;97471.31;5013831;28;20437;-26
2023/10/03 11:42:55;;;;;;;2.87;2.60;;;;;;;23.06;68.98;97473.03;5007359;28;20238;-26
2023/10/03 11:45:23;;;;;;;2.90;2.60;;;;;;;23.05;68.96;97473.88;5012887;28;20657;-26
2023/10/03 11:47:59;;;;;;;2.50;2.30;;;;;;;23.06;68.65;97472.16;5007849;28;20198;-26
2023/10/03 11:50:28;;;;;;;2.40;2.20;;;;;;;23.06;68.60;97470.47;5013053;28;20296;-26